Time;durP1;ratioP1;P1;durP2;ratioP2;P2;SDS_P1;SDS_P2;PMS_P1;PMS_P2;Temp;Humidity;BMP_temperature;BMP_pressure;BME280_temperature;BME280_humidity;BME280_pressure;Samples;Min_cycle;Max_cycle;Signal;HPM_P1;HPM_P2
2023/05/30 00:00:08;;;;;;;5.80;2.30;;;;;;;15.03;47.36;100770.14;104000;277;38323;-70
2023/05/30 00:03:04;;;;;;;7.10;2.60;;;;;;;15.02;47.65;100770.90;103994;277;39022;-73
2023/05/30 00:05:38;;;;;;;6.20;2.10;;;;;;;15.01;47.36;100762.29;103965;277;38382;-71
2023/05/30 00:08:12;;;;;;;5.00;2.00;;;;;;;15.01;47.18;100763.55;104075;277;38280;-73
2023/05/30 00:10:48;;;;;;;4.70;2.10;;;;;;;15.01;46.97;100763.17;103788;278;39053;-72
2023/05/30 00:13:28;;;;;;;5.60;2.00;;;;;;;15.01;46.95;100764.95;104057;277;39427;-73
2023/05/30 00:16:03;;;;;;;5.60;2.00;;;;;;;15.00;46.81;100765.70;104052;277;39174;-73
2023/05/30 00:18:39;;;;;;;5.80;2.30;;;;;;;14.98;46.93;100765.97;104033;277;38803;-72
2023/05/30 00:21:17;;;;;;;6.20;2.10;;;;;;;14.94;46.95;100765.43;104046;277;39680;-73
2023/05/30 00:23:51;;;;;;;6.60;2.40;;;;;;;14.92;46.91;100766.95;104034;277;38234;-73
2023/05/30 00:26:27;;;;;;;3.20;1.70;;;;;;;14.88;47.11;100767.51;104029;277;39952;-73
2023/05/30 00:29:01;;;;;;;5.90;2.50;;;;;;;14.83;47.28;100768.83;104055;277;38351;-73
2023/05/30 00:31:35;;;;;;;4.40;2.60;;;;;;;14.78;47.68;100769.27;104018;277;38597;-73
2023/05/30 00:34:12;;;;;;;6.20;2.10;;;;;;;14.70;48.02;100769.48;104030;277;39459;-71
2023/05/30 00:36:48;;;;;;;5.10;2.10;;;;;;;14.62;48.21;100768.08;104025;277;40006;-72
2023/05/30 00:39:22;;;;;;;4.60;2.00;;;;;;;14.54;48.55;100765.33;103785;277;39440;-73
2023/05/30 00:41:58;;;;;;;4.90;2.40;;;;;;;14.47;48.89;100770.55;104089;277;38696;-71
2023/05/30 00:44:32;;;;;;;5.00;2.10;;;;;;;14.40;49.06;100766.48;104030;277;39399;-73
2023/05/30 00:47:06;;;;;;;4.00;1.90;;;;;;;14.34;49.25;100773.27;103839;277;39966;-73
2023/05/30 00:49:41;;;;;;;5.20;2.00;;;;;;;14.28;49.64;100774.95;103874;277;175853;-73
2023/05/30 00:52:15;;;;;;;6.90;2.10;;;;;;;14.23;49.86;100771.33;104040;277;38734;-73
2023/05/30 00:54:53;;;;;;;6.80;2.20;;;;;;;14.16;50.62;100770.43;104035;277;38421;-74
2023/05/30 00:57:29;;;;;;;5.40;1.80;;;;;;;14.08;50.93;100769.55;103931;277;175012;-73
2023/05/30 01:00:04;;;;;;;4.50;1.90;;;;;;;14.01;51.13;100769.87;104003;277;39792;-72
2023/05/30 01:02:43;;;;;;;8.30;2.30;;;;;;;13.94;51.25;100773.02;104124;277;38675;-72
2023/05/30 01:05:19;;;;;;;5.60;2.10;;;;;;;13.86;51.53;100775.13;104106;277;38224;-72
2023/05/30 01:07:58;;;;;;;6.40;2.70;;;;;;;13.80;52.24;100782.41;104069;277;38265;-73
2023/05/30 01:10:36;;;;;;;6.70;2.70;;;;;;;13.75;52.66;100780.86;104091;277;38899;-73
2023/05/30 01:13:19;;;;;;;4.80;2.30;;;;;;;13.72;52.97;100784.86;104097;277;38685;-72
2023/05/30 01:15:58;;;;;;;8.00;2.60;;;;;;;13.68;53.33;100782.95;104082;277;38264;-70
2023/05/30 01:18:33;;;;;;;;;;;;;;;13.65;53.82;100784.48;103748;277;38493;-72
2023/05/30 01:21:12;;;;;;;4.80;2.30;;;;;;;13.56;53.96;100783.63;104026;277;39387;-73
2023/05/30 01:24:00;;;;;;;4.30;2.20;;;;;;;13.53;54.24;100785.20;104019;277;39947;-73
2023/05/30 01:26:57;;;;;;;5.50;2.60;;;;;;;13.48;54.21;100791.91;103838;278;38609;-72
2023/05/30 01:29:31;;;;;;;4.60;2.40;;;;;;;13.45;54.32;100795.70;104014;265;38504;-72
2023/05/30 01:32:06;;;;;;;7.00;2.80;;;;;;;13.42;54.83;100794.77;104012;277;38242;-73
2023/05/30 01:34:40;;;;;;;6.70;2.70;;;;;;;13.38;54.71;100800.73;104004;274;40095;-73
2023/05/30 01:37:16;;;;;;;8.30;2.80;;;;;;;13.35;54.68;100802.80;104043;277;39622;-73
2023/05/30 01:39:50;;;;;;;6.60;2.20;;;;;;;13.32;54.75;100811.15;103995;277;39310;-73
2023/05/30 01:42:27;;;;;;;4.30;2.50;;;;;;;13.29;54.81;100807.77;104052;277;39673;-74
2023/05/30 01:45:09;;;;;;;7.40;2.50;;;;;;;13.27;54.48;100809.45;104031;277;39444;-72
2023/05/30 01:47:50;;;;;;;4.80;2.40;;;;;;;13.23;54.41;100814.51;104068;277;38272;-71
2023/05/30 01:50:33;;;;;;;7.70;2.30;;;;;;;13.22;54.35;100813.50;104032;277;38273;-71
2023/05/30 01:53:13;;;;;;;6.30;2.20;;;;;;;13.19;54.34;100811.66;104081;277;39713;-73
2023/05/30 01:55:50;;;;;;;5.80;2.30;;;;;;;13.17;54.34;100810.33;104108;277;38685;-73
2023/05/30 01:58:26;;;;;;;8.90;3.00;;;;;;;13.14;54.41;100808.90;103968;276;38537;-74
2023/05/30 02:01:05;;;;;;;5.10;2.20;;;;;;;13.10;54.51;100809.41;103924;277;39026;-73
2023/05/30 02:03:41;;;;;;;7.70;2.60;;;;;;;13.06;54.60;100809.91;103901;277;38356;-73
2023/05/30 02:06:16;;;;;;;4.70;2.40;;;;;;;13.01;54.35;100811.17;103903;277;38546;-73
2023/05/30 02:08:52;;;;;;;8.10;2.60;;;;;;;12.95;54.46;100817.73;103844;277;39537;-73
2023/05/30 02:11:26;;;;;;;6.60;2.10;;;;;;;12.89;54.73;100819.89;103906;277;40482;-73
2023/05/30 02:14:03;;;;;;;5.50;2.40;;;;;;;12.83;54.81;100818.06;103888;277;38301;-72
2023/05/30 02:16:38;;;;;;;6.50;2.30;;;;;;;12.78;54.66;100815.98;103875;277;38367;-74
2023/05/30 02:19:14;;;;;;;5.30;2.40;;;;;;;12.72;54.67;100817.27;103899;277;38721;-74
2023/05/30 02:21:54;;;;;;;7.90;2.00;;;;;;;12.66;54.73;100814.50;103941;277;38252;-73
2023/05/30 02:24:27;;;;;;;5.80;2.40;;;;;;;12.60;54.78;100817.71;103925;277;38322;-72
2023/05/30 02:27:11;;;;;;;8.10;2.60;;;;;;;12.56;54.84;100817.72;103901;277;38368;-70
2023/05/30 02:29:48;;;;;;;6.30;2.20;;;;;;;12.51;54.95;100819.67;103859;277;38492;-72
2023/05/30 02:32:22;;;;;;;6.50;2.50;;;;;;;12.48;55.03;100819.61;103890;277;39834;-73
2023/05/30 02:35:01;;;;;;;5.50;2.40;;;;;;;12.43;55.21;100823.63;103898;277;38718;-73
2023/05/30 02:37:46;;;;;;;6.20;2.80;;;;;;;12.37;55.08;100820.74;103886;277;38223;-72
2023/05/30 02:40:25;;;;;;;4.50;2.00;;;;;;;12.31;55.25;100826.21;103859;277;38330;-73
2023/05/30 02:42:59;;;;;;;5.90;2.50;;;;;;;12.25;55.32;100823.99;103828;277;175074;-71
2023/05/30 02:45:36;;;;;;;5.40;1.80;;;;;;;12.20;55.64;100825.23;103948;277;38403;-72
2023/05/30 02:48:12;;;;;;;5.30;2.00;;;;;;;12.15;55.69;100831.20;103716;277;39445;-72
2023/05/30 02:50:48;;;;;;;5.00;2.10;;;;;;;12.10;55.94;100831.54;103910;277;39444;-72
2023/05/30 02:53:22;;;;;;;4.00;1.90;;;;;;;12.05;56.05;100833.10;103900;277;38906;-71
2023/05/30 02:55:57;;;;;;;4.10;2.30;;;;;;;12.02;55.96;100830.25;103920;277;38246;-74
2023/05/30 02:58:34;;;;;;;4.30;2.10;;;;;;;12.00;56.06;100832.08;103913;277;38832;-72
2023/05/30 03:01:08;;;;;;;5.50;2.50;;;;;;;11.98;56.14;100834.09;103764;277;38302;-73
2023/05/30 03:03:43;;;;;;;4.90;2.50;;;;;;;11.96;56.26;100835.57;103969;277;39305;-73
2023/05/30 03:06:19;;;;;;;5.80;2.10;;;;;;;11.94;56.52;100838.23;104027;277;38233;-72
2023/05/30 03:09:00;;;;;;;;;;;;;;;11.92;56.95;100839.03;104040;277;40106;-72
2023/05/30 03:11:35;;;;;;;4.50;1.90;;;;;;;11.86;57.20;100834.16;104017;277;38220;-72
2023/05/30 03:14:10;;;;;;;4.40;2.00;;;;;;;11.85;57.17;100835.24;104040;277;38273;-71
2023/05/30 03:16:46;;;;;;;5.20;2.10;;;;;;;11.85;57.41;100839.61;104048;277;39620;-73
2023/05/30 03:19:23;;;;;;;4.90;2.00;;;;;;;11.85;57.32;100841.72;104023;277;38281;-72
2023/05/30 03:22:00;;;;;;;5.00;2.20;;;;;;;11.86;57.27;100846.03;104025;277;38230;-74
2023/05/30 03:24:37;;;;;;;5.50;1.80;;;;;;;11.89;57.28;100844.38;103962;277;38238;-74
2023/05/30 03:27:12;;;;;;;6.20;2.30;;;;;;;11.92;57.35;100840.23;103794;278;39594;-74
2023/05/30 03:29:47;;;;;;;5.40;2.30;;;;;;;11.95;57.48;100841.73;103987;277;39350;-74
2023/05/30 03:32:21;;;;;;;6.70;2.90;;;;;;;11.98;57.46;100845.96;104022;277;38235;-74
2023/05/30 03:34:56;;;;;;;5.00;2.20;;;;;;;12.04;57.31;100847.14;103946;277;39849;-72
2023/05/30 03:37:30;;;;;;;4.20;2.10;;;;;;;12.16;57.37;100849.87;103989;277;39067;-73
2023/05/30 03:40:08;;;;;;;7.10;2.40;;;;;;;12.44;57.15;100845.98;103973;277;38506;-72
2023/05/30 03:42:43;;;;;;;5.80;2.60;;;;;;;13.08;57.35;100852.05;104049;277;39963;-75
2023/05/30 03:45:20;;;;;;;9.40;2.70;;;;;;;13.87;57.30;100853.33;103998;277;38393;-72
2023/05/30 03:48:02;;;;;;;5.80;2.20;;;;;;;14.73;55.60;100848.70;104033;277;39481;-73
2023/05/30 03:50:41;;;;;;;5.20;1.80;;;;;;;15.53;54.34;100850.58;104046;277;38245;-73
2023/05/30 03:53:22;;;;;;;5.30;1.90;;;;;;;16.31;52.24;100847.20;103604;277;660955;-73
2023/05/30 03:56:02;;;;;;;6.90;2.10;;;;;;;17.02;50.68;100846.58;104051;277;38516;-72
2023/05/30 03:58:41;;;;;;;5.20;2.20;;;;;;;17.77;49.06;100845.72;104046;277;38623;-73
2023/05/30 04:01:20;;;;;;;5.10;2.20;;;;;;;18.52;47.72;100842.52;104057;277;39596;-72
2023/05/30 04:03:54;;;;;;;5.70;2.30;;;;;;;19.21;45.41;100847.54;103848;277;38418;-73
2023/05/30 04:06:29;;;;;;;5.80;2.20;;;;;;;19.72;43.81;100849.95;103821;278;38379;-73
2023/05/30 04:09:07;;;;;;;7.90;2.20;;;;;;;20.08;42.63;100856.84;103788;277;38455;-72
2023/05/30 04:11:47;;;;;;;8.60;2.50;;;;;;;20.44;41.47;100851.84;103776;278;38831;-73
2023/05/30 04:14:22;;;;;;;7.40;2.60;;;;;;;20.66;40.58;100858.84;103713;278;187848;-72
2023/05/30 04:16:57;;;;;;;4.20;2.40;;;;;;;20.68;39.68;100865.55;103808;278;38236;-74
2023/05/30 04:19:31;;;;;;;4.70;2.20;;;;;;;20.42;39.55;100869.02;103791;278;39571;-72
2023/05/30 04:22:05;;;;;;;6.50;2.80;;;;;;;19.92;39.80;100875.69;103798;278;38273;-73
2023/05/30 04:24:47;;;;;;;6.10;2.40;;;;;;;19.33;40.51;100880.54;103796;278;40103;-74
2023/05/30 04:27:24;;;;;;;10.30;2.80;;;;;;;18.86;41.34;100879.06;103803;278;38549;-73
2023/05/30 04:30:06;;;;;;;8.90;2.90;;;;;;;18.46;42.08;100885.79;103869;278;38267;-73
2023/05/30 04:32:50;;;;;;;7.70;3.10;;;;;;;18.00;42.82;100890.91;103854;266;38215;-73
2023/05/30 04:35:33;;;;;;;8.20;2.80;;;;;;;17.61;43.87;100891.85;103819;278;39496;-73
2023/05/30 04:38:19;;;;;;;7.70;2.80;;;;;;;17.32;44.66;100891.56;103762;278;174824;-74
2023/05/30 04:41:01;;;;;;;8.70;2.70;;;;;;;17.13;45.00;100891.13;103910;278;39443;-73
2023/05/30 04:43:36;;;;;;;7.90;3.30;;;;;;;16.98;45.59;100893.71;103842;279;40386;-72
2023/05/30 04:46:13;;;;;;;7.50;2.60;;;;;;;16.88;46.01;100897.63;103851;278;39415;-72
2023/05/30 04:48:55;;;;;;;7.80;2.70;;;;;;;16.80;46.51;100897.91;103821;278;38261;-72
2023/05/30 04:51:32;;;;;;;7.10;2.60;;;;;;;16.72;46.62;100896.38;103871;278;39432;-71
2023/05/30 04:54:10;;;;;;;7.40;2.60;;;;;;;16.71;46.93;100896.80;103717;278;174832;-72
2023/05/30 04:56:48;;;;;;;7.60;2.40;;;;;;;16.95;47.17;100899.19;103874;278;38262;-72
2023/05/30 04:59:27;;;;;;;6.30;2.50;;;;;;;17.50;47.13;100903.27;103827;278;38263;-73
2023/05/30 05:02:00;;;;;;;;;;;;;;;18.41;46.81;100905.70;103866;278;39410;-73
2023/05/30 05:04:37;;;;;;;6.90;2.30;;;;;;;19.51;46.24;100904.30;103829;278;38240;-72
2023/05/30 05:07:11;;;;;;;7.70;2.80;;;;;;;20.68;43.49;100899.75;103902;266;39255;-74
2023/05/30 05:09:46;;;;;;;6.60;2.70;;;;;;;21.58;41.38;100902.05;103930;277;38231;-74
2023/05/30 05:12:21;;;;;;;7.10;2.80;;;;;;;22.58;40.32;100898.70;103861;277;38337;-73
2023/05/30 05:14:59;;;;;;;3.90;2.40;;;;;;;23.51;37.85;100900.00;103935;277;38343;-74
2023/05/30 05:17:34;;;;;;;7.80;2.60;;;;;;;23.94;35.58;100900.55;104062;277;38512;-77
2023/05/30 05:20:12;;;;;;;4.40;2.10;;;;;;;24.21;35.38;100899.19;103940;277;38246;-73
2023/05/30 05:22:49;;;;;;;8.00;2.80;;;;;;;24.78;34.74;100902.80;103920;277;171662;-73
2023/05/30 05:25:32;;;;;;;6.90;2.30;;;;;;;25.41;33.59;100907.04;104049;265;38268;-73
2023/05/30 05:28:10;;;;;;;8.20;2.60;;;;;;;25.82;32.32;100910.46;103962;277;39711;-72
2023/05/30 05:30:45;;;;;;;5.50;2.40;;;;;;;26.22;31.83;100911.28;103991;277;38871;-73
2023/05/30 05:33:20;;;;;;;5.30;2.30;;;;;;;26.61;30.70;100913.67;103948;277;38817;-73
2023/05/30 05:35:54;;;;;;;4.80;2.20;;;;;;;26.72;29.96;100916.19;103912;277;38254;-72
2023/05/30 05:38:34;;;;;;;4.40;2.20;;;;;;;26.90;30.16;100917.30;103273;277;889388;-73
2023/05/30 05:41:11;;;;;;;6.90;2.20;;;;;;;27.28;29.49;100911.73;103890;277;38235;-73
2023/05/30 05:43:49;;;;;;;9.10;2.50;;;;;;;27.52;28.92;100915.38;103860;277;38381;-72
2023/05/30 05:46:24;;;;;;;9.80;2.70;;;;;;;27.81;28.64;100916.27;103876;277;38218;-72
2023/05/30 05:48:58;;;;;;;6.90;2.60;;;;;;;28.23;28.33;100921.92;103922;277;38246;-72
2023/05/30 05:51:47;;;;;;;9.50;2.00;;;;;;;28.53;27.89;100918.27;103901;277;38555;-72
2023/05/30 05:54:26;;;;;;;3.40;1.80;;;;;;;28.93;27.31;100926.99;103915;277;38571;-72
2023/05/30 05:57:07;;;;;;;4.30;2.00;;;;;;;29.17;26.43;100926.77;103972;277;38255;-72
2023/05/30 05:59:47;;;;;;;6.00;3.00;;;;;;;29.54;25.86;100926.36;103787;277;38522;-72
2023/05/30 06:02:22;;;;;;;7.80;2.30;;;;;;;29.71;25.60;100928.05;103958;277;38592;-72
2023/05/30 06:04:56;;;;;;;4.70;1.70;;;;;;;30.03;25.20;100930.55;103896;277;38259;-72
2023/05/30 06:07:33;;;;;;;7.20;2.30;;;;;;;30.04;24.34;100929.98;103902;277;38289;-72
2023/05/30 06:10:12;;;;;;;6.40;2.20;;;;;;;29.77;24.12;100933.66;103872;277;38765;-71
2023/05/30 06:12:49;;;;;;;7.00;1.80;;;;;;;29.67;24.45;100933.02;103768;277;174069;-72
2023/05/30 06:15:28;;;;;;;4.80;2.00;;;;;;;29.81;24.43;100931.80;103929;277;38289;-72
2023/05/30 06:18:05;;;;;;;8.90;2.20;;;;;;;30.14;24.50;100934.84;103917;277;38822;-73
2023/05/30 06:20:46;;;;;;;3.80;2.10;;;;;;;30.87;23.64;100937.61;103943;277;38697;-71
2023/05/30 06:23:21;;;;;;;5.10;1.90;;;;;;;31.00;22.61;100937.11;103887;277;38745;-71
2023/05/30 06:26:01;;;;;;;3.80;1.50;;;;;;;31.19;22.83;100939.19;103885;277;38739;-73
2023/05/30 06:28:39;;;;;;;4.10;1.90;;;;;;;31.29;22.01;100940.02;103800;278;38514;-73
2023/05/30 06:31:13;;;;;;;;;;;;;;;31.09;22.01;100946.81;104007;277;38435;-73
2023/05/30 06:33:52;;;;;;;5.30;2.20;;;;;;;31.02;21.84;100946.35;103784;279;38445;-73
2023/05/30 06:36:34;;;;;;;3.20;1.40;;;;;;;31.01;22.07;100952.23;103793;277;39392;-73
2023/05/30 06:39:15;;;;;;;6.30;1.90;;;;;;;31.30;21.94;100948.54;104006;277;38512;-73
2023/05/30 06:41:53;;;;;;;4.70;1.60;;;;;;;31.53;22.06;100950.55;103981;277;38348;-74
2023/05/30 06:44:27;;;;;;;11.10;2.20;;;;;;;31.82;20.97;100952.52;103875;277;40080;-74
2023/05/30 06:47:06;;;;;;;7.30;2.10;;;;;;;32.03;20.91;100950.58;103948;277;38444;-74
2023/05/30 06:49:42;;;;;;;5.50;2.20;;;;;;;32.35;21.06;100952.33;103957;277;38242;-73
2023/05/30 06:52:20;;;;;;;3.70;1.90;;;;;;;32.36;20.45;100957.27;103949;277;38235;-73
2023/05/30 06:54:54;;;;;;;5.90;1.90;;;;;;;32.40;20.43;100959.08;103913;277;38342;-73
2023/05/30 06:57:28;;;;;;;5.00;2.10;;;;;;;32.42;20.28;100955.05;103750;277;38237;-72
2023/05/30 07:00:03;;;;;;;3.80;1.80;;;;;;;32.45;19.81;100955.30;103916;277;39380;-73
2023/05/30 07:02:39;;;;;;;3.90;1.70;;;;;;;32.13;19.47;100952.77;103930;277;38252;-73
2023/05/30 07:05:14;;;;;;;5.50;1.80;;;;;;;31.87;19.90;100952.88;103765;279;38515;-73
2023/05/30 07:07:48;;;;;;;4.30;1.70;;;;;;;31.75;19.87;100952.83;103805;278;39432;-73
2023/05/30 07:10:26;;;;;;;6.10;2.40;;;;;;;31.81;20.36;100953.88;103803;278;38722;-73
2023/05/30 07:13:02;;;;;;;5.40;1.80;;;;;;;31.70;19.53;100947.66;103817;278;38246;-73
2023/05/30 07:15:40;;;;;;;7.50;2.00;;;;;;;31.62;20.11;100949.32;103716;278;38326;-73
2023/05/30 07:18:16;;;;;;;5.60;1.80;;;;;;;31.80;19.93;100948.19;103802;278;38826;-74
2023/05/30 07:20:49;;;;;;;4.30;1.60;;;;;;;31.94;19.50;100952.52;103856;278;38385;-73
2023/05/30 07:23:23;;;;;;;8.30;2.30;;;;;;;31.99;19.29;100956.05;103859;278;38469;-73
2023/05/30 07:25:57;;;;;;;5.70;2.00;;;;;;;32.13;20.31;100951.89;103725;278;173617;-73
2023/05/30 07:28:32;;;;;;;4.90;2.00;;;;;;;32.47;19.20;100954.50;103815;278;38880;-73
2023/05/30 07:31:06;;;;;;;6.20;1.90;;;;;;;32.46;19.18;100956.23;103793;278;39685;-74
2023/05/30 07:33:40;;;;;;;4.10;1.70;;;;;;;32.26;18.91;100955.94;103772;279;38820;-73
2023/05/30 07:36:14;;;;;;;4.40;1.90;;;;;;;32.29;19.00;100952.46;103708;279;38707;-75
2023/05/30 07:38:51;;;;;;;3.90;1.70;;;;;;;32.24;19.12;100954.38;103803;278;40175;-73
2023/05/30 07:41:26;;;;;;;3.20;1.40;;;;;;;32.26;19.28;100955.91;103691;278;38722;-73
2023/05/30 07:44:00;;;;;;;2.90;1.60;;;;;;;32.49;18.55;100953.16;103815;278;38729;-73
2023/05/30 07:46:36;;;;;;;10.00;2.40;;;;;;;32.53;18.49;100957.95;103852;278;38484;-73
2023/05/30 07:49:18;;;;;;;4.00;1.40;;;;;;;32.77;18.93;100961.58;103808;278;39480;-74
2023/05/30 07:51:55;;;;;;;3.90;1.70;;;;;;;32.85;17.96;100958.64;103873;278;38427;-74
2023/05/30 07:54:30;;;;;;;5.00;2.00;;;;;;;32.77;17.87;100957.15;103832;278;38681;-74
2023/05/30 07:57:06;;;;;;;7.10;1.90;;;;;;;32.64;17.36;100956.02;103843;278;39434;-73
2023/05/30 07:59:40;;;;;;;14.20;2.40;;;;;;;32.78;18.25;100955.85;103799;278;39610;-73
2023/05/30 08:02:15;;;;;;;3.80;1.50;;;;;;;33.01;17.16;100961.05;103784;278;39633;-73
2023/05/30 08:04:48;;;;;;;4.40;1.50;;;;;;;32.93;17.35;100962.73;103771;277;38305;-74
2023/05/30 08:07:30;;;;;;;3.60;1.60;;;;;;;33.02;17.41;100962.46;104004;277;39390;-73
2023/05/30 08:10:07;;;;;;;6.20;1.50;;;;;;;32.97;17.50;100969.31;104002;277;38296;-73
2023/05/30 08:12:46;;;;;;;5.50;1.70;;;;;;;33.24;17.12;100968.11;104040;277;39785;-73
2023/05/30 08:15:22;;;;;;;11.30;3.20;;;;;;;33.14;17.39;100964.30;104016;277;38764;-73
2023/05/30 08:18:00;;;;;;;4.90;1.50;;;;;;;33.32;17.04;100961.52;104020;277;39697;-75
2023/05/30 08:20:38;;;;;;;4.30;1.90;;;;;;;33.38;16.83;100966.92;104046;277;38274;-73
2023/05/30 08:23:15;;;;;;;16.30;3.00;;;;;;;33.37;17.31;100966.55;104037;277;39467;-73
2023/05/30 08:25:51;;;;;;;7.20;1.60;;;;;;;33.69;16.90;100963.89;104023;277;39398;-73
2023/05/30 08:28:25;;;;;;;4.40;1.60;;;;;;;33.68;16.49;100962.33;104005;277;39416;-74
2023/05/30 08:31:03;;;;;;;9.30;2.00;;;;;;;33.51;16.74;100967.59;104022;277;38431;-74
2023/05/30 08:33:40;;;;;;;7.60;2.30;;;;;;;33.38;16.60;100971.57;103962;277;39992;-74
2023/05/30 08:36:21;;;;;;;7.40;1.80;;;;;;;33.24;16.68;100970.24;103800;277;38262;-74
2023/05/30 08:38:56;;;;;;;11.10;2.40;;;;;;;33.14;16.96;100967.77;103900;277;39039;-73
2023/05/30 08:41:30;;;;;;;6.40;2.20;;;;;;;33.27;17.34;100964.61;104022;277;38833;-76
2023/05/30 08:44:05;;;;;;;2.80;1.60;;;;;;;33.69;17.13;100962.95;104042;277;39391;-76
2023/05/30 08:46:43;;;;;;;7.80;1.90;;;;;;;33.73;16.87;100963.58;104065;277;38373;-76
2023/05/30 08:49:18;;;;;;;;;;;;;;;33.93;16.44;100967.81;103923;278;38298;-77
2023/05/30 08:52:00;;;;;;;4.20;1.30;;;;;;;33.72;16.27;100967.33;104023;277;38247;-73
2023/05/30 08:54:36;;;;;;;3.30;1.40;;;;;;;33.50;16.24;100965.85;103966;277;38593;-73
2023/05/30 08:57:22;;;;;;;5.40;1.70;;;;;;;33.38;16.72;100970.66;103980;277;39127;-73
2023/05/30 09:00:05;;;;;;;3.40;1.50;;;;;;;33.48;16.59;100979.38;103950;277;38327;-73
2023/05/30 09:02:44;;;;;;;3.50;1.70;;;;;;;33.56;16.55;100988.81;103937;277;38782;-73
2023/05/30 09:05:23;;;;;;;4.00;1.70;;;;;;;33.37;16.95;100985.59;103783;278;39691;-73
2023/05/30 09:07:58;;;;;;;3.30;1.70;;;;;;;33.36;16.90;100986.44;103833;278;39373;-73
2023/05/30 09:10:34;;;;;;;3.80;1.80;;;;;;;33.28;17.10;100988.36;103878;278;38506;-73
2023/05/30 09:13:10;;;;;;;3.70;1.70;;;;;;;32.88;17.26;100980.16;103814;278;39432;-73
2023/05/30 09:15:45;;;;;;;6.00;1.90;;;;;;;32.60;17.68;100986.82;103801;278;38272;-73
2023/05/30 09:18:23;;;;;;;3.60;1.40;;;;;;;32.07;17.22;100987.44;103740;278;174154;-73
2023/05/30 09:21:01;;;;;;;4.20;1.70;;;;;;;31.40;17.88;100986.94;103864;278;38346;-74
2023/05/30 09:23:40;;;;;;;2.50;1.50;;;;;;;30.77;18.74;100984.98;103897;278;38515;-72
2023/05/30 09:26:24;;;;;;;5.80;2.10;;;;;;;30.32;19.47;100986.27;103863;278;38230;-73
2023/05/30 09:28:58;;;;;;;3.60;1.90;;;;;;;29.97;19.74;100991.52;103870;278;38350;-73
2023/05/30 09:31:33;;;;;;;3.20;1.50;;;;;;;29.56;20.27;100985.39;103891;278;38394;-73
2023/05/30 09:34:10;;;;;;;2.50;1.60;;;;;;;29.24;20.24;100989.39;103828;266;38510;-72
2023/05/30 09:36:45;;;;;;;4.10;1.70;;;;;;;29.03;20.72;100987.00;103868;278;38667;-72
2023/05/30 09:39:19;;;;;;;4.10;1.50;;;;;;;28.91;20.63;100984.68;103857;278;39438;-72
2023/05/30 09:41:57;;;;;;;6.10;1.90;;;;;;;28.67;21.11;100988.03;103816;278;39522;-74
2023/05/30 09:44:33;;;;;;;5.80;1.80;;;;;;;28.21;21.55;100993.86;103869;278;39669;-72
2023/05/30 09:47:13;;;;;;;5.90;1.90;;;;;;;27.99;21.39;100998.10;103846;278;38834;-72
2023/05/30 09:49:48;;;;;;;2.90;1.60;;;;;;;27.74;21.59;100993.48;103863;278;38368;-73
2023/05/30 09:52:29;;;;;;;3.30;1.80;;;;;;;27.53;22.08;100993.83;103860;277;38780;-73
2023/05/30 09:55:07;;;;;;;6.90;2.10;;;;;;;27.31;22.44;100997.41;103846;278;39551;-72
2023/05/30 09:57:46;;;;;;;4.00;1.70;;;;;;;27.14;22.29;101000.52;103883;278;38221;-72
2023/05/30 10:00:31;;;;;;;4.60;1.60;;;;;;;26.85;22.74;101007.95;103850;278;38479;-71
2023/05/30 10:03:06;;;;;;;3.80;1.60;;;;;;;26.83;23.92;101001.51;103846;278;38510;-73
2023/05/30 10:05:43;;;;;;;4.10;1.70;;;;;;;27.14;24.10;100992.29;103867;277;38941;-72
2023/05/30 10:08:17;;;;;;;6.20;1.90;;;;;;;27.46;23.69;100996.25;103775;277;174447;-73
2023/05/30 10:10:53;;;;;;;3.30;1.60;;;;;;;27.56;23.94;100992.05;103769;277;174413;-72
2023/05/30 10:13:31;;;;;;;4.60;1.90;;;;;;;27.65;22.93;100996.19;103856;277;38434;-72
2023/05/30 10:16:07;;;;;;;4.40;1.90;;;;;;;27.37;21.88;100993.63;103906;277;38271;-72
2023/05/30 10:18:43;;;;;;;6.90;2.10;;;;;;;27.19;21.95;100994.98;103929;277;38528;-72
2023/05/30 10:21:25;;;;;;;4.50;1.80;;;;;;;26.96;22.36;100992.09;103989;277;38381;-73
2023/05/30 10:24:02;;;;;;;2.80;1.40;;;;;;;26.78;22.38;100991.47;103899;277;38684;-73
2023/05/30 10:26:41;;;;;;;3.40;1.30;;;;;;;26.69;22.34;100990.17;103967;277;38558;-73
2023/05/30 10:29:19;;;;;;;5.10;1.50;;;;;;;26.40;21.85;100996.33;103931;277;38524;-74
2023/05/30 10:32:02;;;;;;;5.70;1.80;;;;;;;26.13;22.27;100995.98;103947;277;38233;-71
2023/05/30 10:34:44;;;;;;;4.00;1.80;;;;;;;26.02;23.42;100991.52;103868;277;39466;-73
2023/05/30 10:37:18;;;;;;;4.50;1.80;;;;;;;26.13;22.52;100996.20;103843;277;174443;-72
2023/05/30 10:40:00;;;;;;;5.30;1.40;;;;;;;25.95;22.51;100999.30;103935;277;38436;-71
2023/05/30 10:42:42;;;;;;;4.70;1.60;;;;;;;25.69;22.31;100997.60;103978;277;38261;-73
2023/05/30 10:45:27;;;;;;;3.20;1.60;;;;;;;25.48;22.54;100991.48;103946;277;39457;-73
2023/05/30 10:48:16;;;;;;;3.90;1.50;;;;;;;25.54;23.17;100994.83;103906;277;38257;-74
2023/05/30 10:50:55;;;;;;;;;;;;;;;25.40;22.62;100994.19;103999;277;38424;-73
2023/05/30 10:53:31;;;;;;;4.00;1.40;;;;;;;25.19;22.27;101002.63;103775;277;40200;-72
2023/05/30 10:56:37;;;;;;;3.10;1.30;;;;;;;25.10;22.46;100998.46;103998;277;39645;-71
2023/05/30 10:59:21;;;;;;;3.60;1.70;;;;;;;25.19;22.85;100997.61;103857;277;174488;-73
2023/05/30 11:02:09;;;;;;;3.20;1.90;;;;;;;25.28;22.02;100997.98;103980;277;39889;-73
2023/05/30 11:04:46;;;;;;;3.50;1.50;;;;;;;25.43;23.42;100988.02;103889;277;39638;-74
2023/05/30 11:07:22;;;;;;;3.70;1.30;;;;;;;25.65;23.52;100987.61;103917;277;38461;-74
2023/05/30 11:10:10;;;;;;;4.00;1.30;;;;;;;25.73;23.04;100987.36;103678;277;39298;-74
2023/05/30 11:12:48;;;;;;;4.40;1.30;;;;;;;25.64;22.69;100991.44;103979;277;38548;-73
2023/05/30 11:15:37;;;;;;;2.70;1.40;;;;;;;25.48;21.82;100991.51;103904;277;39418;-72
2023/05/30 11:18:25;;;;;;;3.90;1.50;;;;;;;25.21;21.60;100991.77;103796;277;38658;-73
2023/05/30 11:21:02;;;;;;;2.50;1.30;;;;;;;24.89;21.60;100987.12;103949;277;38810;-73
2023/05/30 11:23:41;;;;;;;3.20;1.60;;;;;;;24.84;22.03;100986.99;103851;277;39636;-74
2023/05/30 11:26:22;;;;;;;3.60;1.60;;;;;;;24.85;22.22;100992.66;103841;277;39942;-73
2023/05/30 11:29:00;;;;;;;3.10;1.90;;;;;;;24.69;21.78;100994.77;104043;277;38298;-72
2023/05/30 11:31:35;;;;;;;3.30;1.20;;;;;;;24.50;22.31;100993.88;104029;277;38414;-73
2023/05/30 11:34:13;;;;;;;2.30;1.50;;;;;;;24.55;22.92;100990.31;104028;277;38932;-71
2023/05/30 11:36:52;;;;;;;3.90;1.30;;;;;;;24.64;22.78;100989.27;103925;266;39449;-73
2023/05/30 11:39:32;;;;;;;2.10;1.10;;;;;;;24.75;22.53;100992.25;103966;277;38878;-73
2023/05/30 11:42:12;;;;;;;2.50;1.40;;;;;;;24.62;22.25;100992.32;103932;277;38212;-74
2023/05/30 11:44:49;;;;;;;4.00;1.70;;;;;;;24.39;22.49;100994.64;103908;277;39848;-72
2023/05/30 11:47:27;;;;;;;4.00;1.70;;;;;;;24.21;22.79;100997.09;103996;277;38265;-72
2023/05/30 11:50:09;;;;;;;2.60;1.30;;;;;;;24.10;22.63;100984.65;103926;277;39561;-73
2023/05/30 11:52:43;;;;;;;2.50;1.40;;;;;;;24.09;23.80;100982.27;103493;277;637758;-73
2023/05/30 11:55:17;;;;;;;2.60;1.00;;;;;;;24.14;24.61;100980.75;103745;279;39048;-72
2023/05/30 11:57:54;;;;;;;4.10;1.50;;;;;;;24.25;24.87;100982.85;104001;277;38461;-72
2023/05/30 12:00:32;;;;;;;5.00;1.50;;;;;;;24.31;23.32;100983.23;104005;277;39943;-72
2023/05/30 12:03:06;;;;;;;4.40;1.50;;;;;;;24.12;21.99;100989.52;103938;277;38317;-73
2023/05/30 12:05:42;;;;;;;4.20;1.40;;;;;;;23.83;22.21;100995.54;103991;277;39588;-72
2023/05/30 12:08:20;;;;;;;4.40;1.60;;;;;;;23.67;23.25;100990.98;103944;277;38466;-72
2023/05/30 12:10:57;;;;;;;5.60;1.50;;;;;;;23.61;22.78;100995.15;103961;277;39474;-73
2023/05/30 12:13:34;;;;;;;2.80;1.60;;;;;;;23.52;22.63;100991.46;103982;277;38524;-73